This is the latest recevied weather packets stored in our database for station/object WD4LSS. If no packets are shown the sender has not sent any weather packets the latest 10 day(s).
| Time | Temp. | Humidity | Pressure | Rain* | Wind** | Luminosity | Snow |
|---|---|---|---|---|---|---|---|
| 1777172417 | 16.11° C | 97% | 1011.4 hPa | 0.25 mm | - | - | - |
| 1777172117 | 16.11° C | 97% | 1011.4 hPa | 0.25 mm | - | - | - |
| 1777169137 | 16.11° C | 96% | 1011.5 hPa | 0 mm | - | - | - |
| 1777167937 | 16.11° C | 96% | 1011.2 hPa | 0 mm | - | - | - |
| 1777167617 | 16.11° C | 96% | 1011.2 hPa | 0 mm | - | - | - |
| 1777166717 | 16.11° C | 96% | 1010.9 hPa | 0 mm | - | - | - |
| 1777166417 | 16.11° C | 96% | 1011.1 hPa | 0 mm | - | - | - |
| 1777164017 | 16.11° C | 96% | 1010.8 hPa | 0.25 mm | - | - | - |
| 1777162517 | 16.11° C | 95% | 1010.6 hPa | 0.25 mm | - | - | - |
| 1777161637 | 16.67° C | 96% | 1010.2 hPa | 0 mm | - | - | - |
| 1777146916 | 26.11° C | 54% | 1008.1 hPa | 0 mm | - | - | - |
| 1777141836 | 28.89° C | 44% | 1008.7 hPa | 0 mm | - | - | - |
| 1777140616 | 28.89° C | 45% | 1008.8 hPa | 0 mm | - | - | - |
| 1777140016 | 28.89° C | 46% | 1009.1 hPa | 0 mm | - | - | - |
| 1777136436 | 28.33° C | 49% | 1009.5 hPa | 0 mm | - | - | - |
| 1777135516 | 28.33° C | 49% | 1009.8 hPa | 0 mm | - | - | - |
| 1777134916 | 28.33° C | 49% | 1010 hPa | 0 mm | - | - | - |
| 1777134616 | 27.78° C | 49% | 1010.1 hPa | 0 mm | - | - | - |
| 1777134316 | 27.78° C | 52% | 1010.1 hPa | 0 mm | - | - | - |
| 1777131916 | 26.67° C | 58% | 1010.8 hPa | 0 mm | - | - | - |
| 1777131616 | 26.11° C | 56% | 1010.7 hPa | 0 mm | - | - | - |
| 1777131316 | 26.11° C | 56% | 1010.7 hPa | 0 mm | - | - | - |
| 1777131016 | 26.11° C | 58% | 1010.6 hPa | 0 mm | - | - | - |
| 1777128916 | 23.33° C | 65% | 1010.7 hPa | 0 mm | - | - | - |
* Rain latest hour (hover to see other rain measurements)
** Current wind speed in m/s (hover to see current wind gust speed)